sensor_id;sensor_type;location;lat;lon;timestamp;pressure;altitude;pressure_sealevel;temperature;humidity
61384;BME280;63511;49.346;8.798;2023-02-18T00:00:52;101080.38;;;13.98;80.15
61384;BME280;63511;49.346;8.798;2023-02-18T00:03:18;101087.69;;;13.93;79.61
61384;BME280;63511;49.346;8.798;2023-02-18T00:05:45;101078.41;;;13.94;79.88
61384;BME280;63511;49.346;8.798;2023-02-18T00:08:11;101084.47;;;13.96;79.96
61384;BME280;63511;49.346;8.798;2023-02-18T00:10:39;101086.13;;;13.95;79.78
61384;BME280;63511;49.346;8.798;2023-02-18T00:13:08;101081.56;;;14.03;80.28
61384;BME280;63511;49.346;8.798;2023-02-18T00:15:34;101072.94;;;14.01;79.87
61384;BME280;63511;49.346;8.798;2023-02-18T00:18:01;101069.03;;;13.93;79.84
61384;BME280;63511;49.346;8.798;2023-02-18T00:20:27;101077.16;;;14.00;79.95
61384;BME280;63511;49.346;8.798;2023-02-18T00:22:54;101079.56;;;13.86;79.94
61384;BME280;63511;49.346;8.798;2023-02-18T00:25:20;101080.28;;;13.96;79.92
61384;BME280;63511;49.346;8.798;2023-02-18T00:27:47;101079.69;;;14.00;79.64
61384;BME280;63511;49.346;8.798;2023-02-18T00:30:15;101077.44;;;14.05;79.43
61384;BME280;63511;49.346;8.798;2023-02-18T00:32:42;101073.16;;;14.17;79.36
61384;BME280;63511;49.346;8.798;2023-02-18T00:35:08;101068.56;;;13.98;79.45
61384;BME280;63511;49.346;8.798;2023-02-18T00:37:35;101078.63;;;13.97;79.45
61384;BME280;63511;49.346;8.798;2023-02-18T00:40:01;101070.69;;;13.92;79.52
61384;BME280;63511;49.346;8.798;2023-02-18T00:42:28;101067.28;;;14.05;79.57
61384;BME280;63511;49.346;8.798;2023-02-18T00:44:54;101055.53;;;13.94;79.53
61384;BME280;63511;49.346;8.798;2023-02-18T00:47:22;101062.13;;;14.03;79.68
61384;BME280;63511;49.346;8.798;2023-02-18T00:49:49;101055.94;;;13.87;79.43
61384;BME280;63511;49.346;8.798;2023-02-18T00:52:15;101063.47;;;13.98;79.43
61384;BME280;63511;49.346;8.798;2023-02-18T00:54:42;101056.25;;;14.04;79.46
61384;BME280;63511;49.346;8.798;2023-02-18T00:57:08;101059.06;;;13.96;79.39
61384;BME280;63511;49.346;8.798;2023-02-18T00:59:34;101069.00;;;13.80;80.25
61384;BME280;63511;49.346;8.798;2023-02-18T01:02:01;101067.56;;;13.96;79.82
61384;BME280;63511;49.346;8.798;2023-02-18T01:04:29;101066.97;;;14.00;79.59
61384;BME280;63511;49.346;8.798;2023-02-18T01:06:55;101071.00;;;14.10;79.73
61384;BME280;63511;49.346;8.798;2023-02-18T01:09:22;101061.97;;;13.89;80.20
61384;BME280;63511;49.346;8.798;2023-02-18T01:11:50;101067.75;;;13.86;80.33
61384;BME280;63511;49.346;8.798;2023-02-18T01:14:16;101050.47;;;13.81;80.58
61384;BME280;63511;49.346;8.798;2023-02-18T01:16:43;101062.78;;;13.88;80.59
61384;BME280;63511;49.346;8.798;2023-02-18T01:19:09;101066.00;;;13.85;80.79
61384;BME280;63511;49.346;8.798;2023-02-18T01:21:37;101050.56;;;13.82;80.67
61384;BME280;63511;49.346;8.798;2023-02-18T01:24:04;101055.94;;;13.87;80.82
61384;BME280;63511;49.346;8.798;2023-02-18T01:26:31;101052.53;;;13.99;80.69
61384;BME280;63511;49.346;8.798;2023-02-18T01:28:57;101046.19;;;13.93;80.30
61384;BME280;63511;49.346;8.798;2023-02-18T01:31:24;101049.69;;;13.95;80.93
61384;BME280;63511;49.346;8.798;2023-02-18T01:33:50;101049.00;;;13.84;80.88
61384;BME280;63511;49.346;8.798;2023-02-18T01:36:17;101054.19;;;13.86;81.69
61384;BME280;63511;49.346;8.798;2023-02-18T01:38:45;101053.59;;;13.77;81.29
61384;BME280;63511;49.346;8.798;2023-02-18T01:41:11;101051.22;;;13.80;81.56
61384;BME280;63511;49.346;8.798;2023-02-18T01:43:38;101056.25;;;13.91;80.96
61384;BME280;63511;49.346;8.798;2023-02-18T01:46:12;101056.19;;;13.78;81.76
61384;BME280;63511;49.346;8.798;2023-02-18T01:48:41;101054.38;;;13.89;81.38
61384;BME280;63511;49.346;8.798;2023-02-18T01:51:10;101049.94;;;13.73;81.87
61384;BME280;63511;49.346;8.798;2023-02-18T01:53:48;101042.00;;;13.93;81.17
61384;BME280;63511;49.346;8.798;2023-02-18T01:56:21;101037.56;;;13.78;81.88
61384;BME280;63511;49.346;8.798;2023-02-18T01:58:49;101042.84;;;13.94;81.48
61384;BME280;63511;49.346;8.798;2023-02-18T02:01:16;101036.69;;;13.77;82.14
61384;BME280;63511;49.346;8.798;2023-02-18T02:03:43;101040.78;;;13.75;81.73
61384;BME280;63511;49.346;8.798;2023-02-18T02:06:15;101028.97;;;13.76;81.76
61384;BME280;63511;49.346;8.798;2023-02-18T02:08:43;101040.13;;;13.91;81.41
61384;BME280;63511;49.346;8.798;2023-02-18T02:11:20;101026.94;;;13.83;81.94
61384;BME280;63511;49.346;8.798;2023-02-18T02:13:59;101022.94;;;14.00;80.84
61384;BME280;63511;49.346;8.798;2023-02-18T02:16:31;101018.91;;;13.77;81.68
61384;BME280;63511;49.346;8.798;2023-02-18T02:19:15;101023.34;;;13.93;81.37
61384;BME280;63511;49.346;8.798;2023-02-18T02:22:06;101021.84;;;14.10;80.07
61384;BME280;63511;49.346;8.798;2023-02-18T02:27:58;101010.13;;;13.85;80.67
61384;BME280;63511;49.346;8.798;2023-02-18T02:30:46;101005.94;;;13.86;80.35
61384;BME280;63511;49.346;8.798;2023-02-18T02:33:41;101007.19;;;13.79;80.57
61384;BME280;63511;49.346;8.798;2023-02-18T02:36:14;101012.19;;;13.91;80.26
61384;BME280;63511;49.346;8.798;2023-02-18T02:38:54;101002.50;;;13.85;80.03
61384;BME280;63511;49.346;8.798;2023-02-18T02:41:47;100997.25;;;13.95;79.81
61384;BME280;63511;49.346;8.798;2023-02-18T02:44:20;100999.13;;;13.98;79.50
61384;BME280;63511;49.346;8.798;2023-02-18T02:46:50;100980.72;;;13.76;80.35
61384;BME280;63511;49.346;8.798;2023-02-18T02:49:27;100979.47;;;13.95;79.88
61384;BME280;63511;49.346;8.798;2023-02-18T02:52:02;100984.25;;;13.78;81.03
61384;BME280;63511;49.346;8.798;2023-02-18T02:54:31;100989.53;;;13.81;81.59
61384;BME280;63511;49.346;8.798;2023-02-18T02:57:05;100988.06;;;13.71;82.26
61384;BME280;63511;49.346;8.798;2023-02-18T02:59:33;100981.31;;;13.72;81.81
61384;BME280;63511;49.346;8.798;2023-02-18T03:02:10;100983.16;;;13.74;82.88
61384;BME280;63511;49.346;8.798;2023-02-18T03:04:53;100981.56;;;13.50;83.44
61384;BME280;63511;49.346;8.798;2023-02-18T03:07:47;100971.13;;;13.58;83.00
61384;BME280;63511;49.346;8.798;2023-02-18T03:10:33;100974.28;;;13.81;82.16
61384;BME280;63511;49.346;8.798;2023-02-18T03:13:08;100970.19;;;13.56;82.47
61384;BME280;63511;49.346;8.798;2023-02-18T03:15:46;100975.84;;;13.79;82.03
61384;BME280;63511;49.346;8.798;2023-02-18T03:18:17;100971.75;;;13.81;81.56
61384;BME280;63511;49.346;8.798;2023-02-18T03:20:52;100967.66;;;13.83;81.36
61384;BME280;63511;49.346;8.798;2023-02-18T03:23:24;100971.75;;;13.68;81.55
61384;BME280;63511;49.346;8.798;2023-02-18T03:25:53;100976.94;;;13.95;80.58
61384;BME280;63511;49.346;8.798;2023-02-18T03:28:22;100969.50;;;13.85;80.95
61384;BME280;63511;49.346;8.798;2023-02-18T03:30:52;100972.34;;;13.90;81.05
61384;BME280;63511;49.346;8.798;2023-02-18T03:33:25;100965.91;;;13.82;81.56
61384;BME280;63511;49.346;8.798;2023-02-18T03:35:53;100970.06;;;13.68;81.81
61384;BME280;63511;49.346;8.798;2023-02-18T03:38:23;100965.97;;;13.70;81.80
61384;BME280;63511;49.346;8.798;2023-02-18T03:40:51;100965.13;;;13.83;81.75
61384;BME280;63511;49.346;8.798;2023-02-18T03:43:17;100966.78;;;13.82;81.88
61384;BME280;63511;49.346;8.798;2023-02-18T03:45:44;100967.16;;;13.75;81.88
61384;BME280;63511;49.346;8.798;2023-02-18T03:48:10;100968.63;;;13.72;82.32
61384;BME280;63511;49.346;8.798;2023-02-18T03:50:37;100960.63;;;13.66;82.67
61384;BME280;63511;49.346;8.798;2023-02-18T03:53:03;100960.72;;;13.80;81.93
61384;BME280;63511;49.346;8.798;2023-02-18T03:55:31;100957.59;;;13.84;81.74
61384;BME280;63511;49.346;8.798;2023-02-18T03:57:58;100954.94;;;13.70;81.58
61384;BME280;63511;49.346;8.798;2023-02-18T04:00:24;100953.41;;;13.98;80.72
61384;BME280;63511;49.346;8.798;2023-02-18T04:02:51;100959.84;;;13.67;81.50
61384;BME280;63511;49.346;8.798;2023-02-18T04:05:17;100965.59;;;13.77;80.69
61384;BME280;63511;49.346;8.798;2023-02-18T04:07:44;100959.56;;;13.88;80.52
61384;BME280;63511;49.346;8.798;2023-02-18T04:10:11;100957.88;;;13.89;80.28
61384;BME280;63511;49.346;8.798;2023-02-18T04:12:39;100970.69;;;13.90;80.10
61384;BME280;63511;49.346;8.798;2023-02-18T04:15:06;100963.31;;;14.21;78.87
61384;BME280;63511;49.346;8.798;2023-02-18T04:17:32;100963.56;;;13.98;79.69
61384;BME280;63511;49.346;8.798;2023-02-18T04:19:59;100964.44;;;13.98;79.98
61384;BME280;63511;49.346;8.798;2023-02-18T04:22:26;100968.63;;;13.85;80.22
61384;BME280;63511;49.346;8.798;2023-02-18T04:24:52;100973.41;;;13.80;79.67
61384;BME280;63511;49.346;8.798;2023-02-18T04:27:19;100975.84;;;13.79;79.82
61384;BME280;63511;49.346;8.798;2023-02-18T04:29:47;100975.16;;;13.81;79.49
61384;BME280;63511;49.346;8.798;2023-02-18T04:32:13;100979.19;;;13.91;79.00
61384;BME280;63511;49.346;8.798;2023-02-18T04:34:40;100979.09;;;14.02;78.73
61384;BME280;63511;49.346;8.798;2023-02-18T04:37:06;100974.09;;;13.91;79.29
61384;BME280;63511;49.346;8.798;2023-02-18T04:39:33;100974.09;;;13.91;79.46
61384;BME280;63511;49.346;8.798;2023-02-18T04:41:59;100971.44;;;14.16;78.27
61384;BME280;63511;49.346;8.798;2023-02-18T04:44:26;100972.63;;;13.94;78.75
61384;BME280;63511;49.346;8.798;2023-02-18T04:46:53;100969.03;;;14.04;78.97
61384;BME280;63511;49.346;8.798;2023-02-18T04:49:20;100962.97;;;14.02;78.75
61384;BME280;63511;49.346;8.798;2023-02-18T04:51:47;100964.63;;;13.75;79.46
61384;BME280;63511;49.346;8.798;2023-02-18T04:54:13;100967.06;;;13.74;80.13
61384;BME280;63511;49.346;8.798;2023-02-18T04:56:40;100965.72;;;13.92;79.35
61384;BME280;63511;49.346;8.798;2023-02-18T04:59:06;100972.06;;;13.72;80.04
61384;BME280;63511;49.346;8.798;2023-02-18T05:01:33;100969.03;;;13.78;79.98
61384;BME280;63511;49.346;8.798;2023-02-18T05:04:00;100966.59;;;13.92;79.34
61384;BME280;63511;49.346;8.798;2023-02-18T05:06:27;100974.19;;;13.66;80.44
61384;BME280;63511;49.346;8.798;2023-02-18T05:08:53;100974.09;;;13.78;80.03
61384;BME280;63511;49.346;8.798;2023-02-18T05:11:20;100972.63;;;13.81;79.79
61384;BME280;63511;49.346;8.798;2023-02-18T05:13:46;100964.31;;;13.84;79.83
61384;BME280;63511;49.346;8.798;2023-02-18T05:16:13;100954.97;;;13.83;79.48
61384;BME280;63511;49.346;8.798;2023-02-18T05:18:39;100950.84;;;13.85;79.88
61384;BME280;63511;49.346;8.798;2023-02-18T05:21:07;100943.53;;;14.02;78.77
61384;BME280;63511;49.346;8.798;2023-02-18T05:23:36;100945.28;;;13.90;79.60
61384;BME280;63511;49.346;8.798;2023-02-18T05:26:02;100957.28;;;13.80;79.02
61384;BME280;63511;49.346;8.798;2023-02-18T05:28:29;100950.75;;;13.96;79.30
61384;BME280;63511;49.346;8.798;2023-02-18T05:30:56;100952.41;;;13.70;79.64
61384;BME280;63511;49.346;8.798;2023-02-18T05:33:22;100948.00;;;13.54;80.44
61384;BME280;63511;49.346;8.798;2023-02-18T05:35:49;100946.84;;;13.75;79.48
61384;BME280;63511;49.346;8.798;2023-02-18T05:38:17;100951.25;;;13.91;78.94
61384;BME280;63511;49.346;8.798;2023-02-18T05:40:44;100954.84;;;14.08;78.26
61384;BME280;63511;49.346;8.798;2023-02-18T05:43:10;100946.84;;;13.75;79.76
61384;BME280;63511;49.346;8.798;2023-02-18T05:45:37;100950.44;;;13.79;79.70
61384;BME280;63511;49.346;8.798;2023-02-18T05:48:04;100948.59;;;14.02;79.13
61384;BME280;63511;49.346;8.798;2023-02-18T05:50:30;100953.78;;;13.51;80.28
61384;BME280;63511;49.346;8.798;2023-02-18T05:52:57;100958.38;;;13.70;80.38
61384;BME280;63511;49.346;8.798;2023-02-18T05:55:25;100952.88;;;13.64;80.52
61384;BME280;63511;49.346;8.798;2023-02-18T05:57:52;100948.31;;;13.98;79.51
61384;BME280;63511;49.346;8.798;2023-02-18T06:00:19;100958.66;;;13.75;80.02
61384;BME280;63511;49.346;8.798;2023-02-18T06:02:46;100949.00;;;13.95;79.59
61384;BME280;63511;49.346;8.798;2023-02-18T06:05:12;100947.44;;;13.84;79.78
61384;BME280;63511;49.346;8.798;2023-02-18T06:07:39;100943.63;;;13.91;79.70
61384;BME280;63511;49.346;8.798;2023-02-18T06:10:06;100934.56;;;13.81;79.62
61384;BME280;63511;49.346;8.798;2023-02-18T06:12:34;100943.06;;;13.82;80.25
61384;BME280;63511;49.346;8.798;2023-02-18T06:15:01;100955.78;;;13.44;81.27
61384;BME280;63511;49.346;8.798;2023-02-18T06:17:27;100945.75;;;13.58;80.56
61384;BME280;63511;49.346;8.798;2023-02-18T06:19:54;100946.38;;;13.68;80.44
61384;BME280;63511;49.346;8.798;2023-02-18T06:22:21;100941.88;;;13.50;81.43
61384;BME280;63511;49.346;8.798;2023-02-18T06:24:47;100938.72;;;13.41;81.33
61384;BME280;63511;49.346;8.798;2023-02-18T06:27:14;100932.47;;;13.36;82.00
61384;BME280;63511;49.346;8.798;2023-02-18T06:29:42;100935.09;;;13.38;81.46
61384;BME280;63511;49.346;8.798;2023-02-18T06:32:08;100934.31;;;13.39;81.89
61384;BME280;63511;49.346;8.798;2023-02-18T06:34:35;100933.03;;;13.19;82.50
61384;BME280;63511;49.346;8.798;2023-02-18T06:37:01;100919.00;;;13.37;81.96
61384;BME280;63511;49.346;8.798;2023-02-18T06:39:28;100928.66;;;13.30;82.11
61384;BME280;63511;49.346;8.798;2023-02-18T06:41:54;100931.59;;;13.36;81.81
61384;BME280;63511;49.346;8.798;2023-02-18T06:44:21;100936.25;;;13.30;82.16
61384;BME280;63511;49.346;8.798;2023-02-18T06:46:48;100924.06;;;13.37;81.93
61384;BME280;63511;49.346;8.798;2023-02-18T06:49:15;100929.13;;;13.37;81.43
61384;BME280;63511;49.346;8.798;2023-02-18T06:51:41;100923.41;;;13.40;81.63
61384;BME280;63511;49.346;8.798;2023-02-18T06:54:08;100916.78;;;13.55;81.14
61384;BME280;63511;49.346;8.798;2023-02-18T06:56:35;100921.03;;;13.43;81.44
61384;BME280;63511;49.346;8.798;2023-02-18T06:59:01;100932.56;;;13.38;81.84
61384;BME280;63511;49.346;8.798;2023-02-18T07:01:28;100919.22;;;13.67;81.09
61384;BME280;63511;49.346;8.798;2023-02-18T07:03:55;100912.88;;;13.60;81.13
61384;BME280;63511;49.346;8.798;2023-02-18T07:06:22;100904.59;;;13.63;80.92
61384;BME280;63511;49.346;8.798;2023-02-18T07:08:48;100912.47;;;13.41;81.13
61384;BME280;63511;49.346;8.798;2023-02-18T07:11:15;100914.34;;;13.56;80.91
61384;BME280;63511;49.346;8.798;2023-02-18T07:13:42;100900.84;;;13.57;80.99
61384;BME280;63511;49.346;8.798;2023-02-18T07:16:08;100905.06;;;13.57;81.05
61384;BME280;63511;49.346;8.798;2023-02-18T07:18:35;100908.69;;;13.60;80.61
61384;BME280;63511;49.346;8.798;2023-02-18T07:21:03;100904.19;;;13.70;80.40
61384;BME280;63511;49.346;8.798;2023-02-18T07:23:29;100906.53;;;13.67;80.06
61384;BME280;63511;49.346;8.798;2023-02-18T07:26:03;100901.94;;;13.61;80.90
61384;BME280;63511;49.346;8.798;2023-02-18T07:28:29;100910.63;;;13.78;80.34
61384;BME280;63511;49.346;8.798;2023-02-18T07:30:56;100895.63;;;13.68;80.34
61384;BME280;63511;49.346;8.798;2023-02-18T07:33:22;100888.56;;;13.77;79.91
61384;BME280;63511;49.346;8.798;2023-02-18T07:35:52;100891.38;;;13.68;80.01
61384;BME280;63511;49.346;8.798;2023-02-18T07:38:20;100880.97;;;13.77;79.81
61384;BME280;63511;49.346;8.798;2023-02-18T07:40:47;100890.00;;;13.73;79.94
61384;BME280;63511;49.346;8.798;2023-02-18T07:43:13;100880.25;;;13.92;79.19
61384;BME280;63511;49.346;8.798;2023-02-18T07:45:40;100869.09;;;13.90;79.19
61384;BME280;63511;49.346;8.798;2023-02-18T07:48:06;100877.22;;;13.98;78.70
61384;BME280;63511;49.346;8.798;2023-02-18T07:50:33;100866.88;;;13.82;79.56
61384;BME280;63511;49.346;8.798;2023-02-18T07:53:01;100858.56;;;13.84;78.82
61384;BME280;63511;49.346;8.798;2023-02-18T07:55:29;100849.47;;;14.01;78.86
61384;BME280;63511;49.346;8.798;2023-02-18T07:58:10;100856.41;;;14.03;78.28
61384;BME280;63511;49.346;8.798;2023-02-18T08:00:36;100863.16;;;14.03;77.39
61384;BME280;63511;49.346;8.798;2023-02-18T08:03:03;100866.63;;;14.05;77.75
61384;BME280;63511;49.346;8.798;2023-02-18T08:05:30;100861.75;;;14.08;77.55
61384;BME280;63511;49.346;8.798;2023-02-18T08:07:56;100854.53;;;14.14;76.92
61384;BME280;63511;49.346;8.798;2023-02-18T08:10:23;100859.00;;;14.18;77.17
61384;BME280;63511;49.346;8.798;2023-02-18T08:12:51;100859.66;;;14.16;76.62
61384;BME280;63511;49.346;8.798;2023-02-18T08:15:17;100860.88;;;14.35;75.88
61384;BME280;63511;49.346;8.798;2023-02-18T08:17:44;100855.25;;;14.26;76.16
61384;BME280;63511;49.346;8.798;2023-02-18T08:20:11;100863.25;;;14.32;75.87
61384;BME280;63511;49.346;8.798;2023-02-18T08:22:37;100852.81;;;14.28;76.00
61384;BME280;63511;49.346;8.798;2023-02-18T08:25:04;100874.88;;;14.42;75.27
61384;BME280;63511;49.346;8.798;2023-02-18T08:27:31;100852.09;;;14.30;75.50
61384;BME280;63511;49.346;8.798;2023-02-18T08:29:59;100859.34;;;14.37;75.17
61384;BME280;63511;49.346;8.798;2023-02-18T08:32:26;100855.94;;;14.37;75.33
61384;BME280;63511;49.346;8.798;2023-02-18T08:34:52;100852.31;;;14.33;75.37
61384;BME280;63511;49.346;8.798;2023-02-18T08:37:19;100861.03;;;14.24;75.47
61384;BME280;63511;49.346;8.798;2023-02-18T08:39:46;100855.16;;;14.38;74.37
61384;BME280;63511;49.346;8.798;2023-02-18T08:42:12;100858.25;;;14.34;74.61
61384;BME280;63511;49.346;8.798;2023-02-18T08:44:39;100854.75;;;14.32;75.02
61384;BME280;63511;49.346;8.798;2023-02-18T08:47:06;100857.34;;;14.46;74.07
61384;BME280;63511;49.346;8.798;2023-02-18T08:49:33;100849.41;;;14.55;74.11
61384;BME280;63511;49.346;8.798;2023-02-18T08:52:01;100843.00;;;14.47;73.87
61384;BME280;63511;49.346;8.798;2023-02-18T08:54:28;100854.22;;;14.51;74.22
61384;BME280;63511;49.346;8.798;2023-02-18T08:56:55;100844.25;;;14.54;73.70
61384;BME280;63511;49.346;8.798;2023-02-18T08:59:22;100834.59;;;14.63;73.83
61384;BME280;63511;49.346;8.798;2023-02-18T09:01:48;100838.28;;;14.53;73.51
61384;BME280;63511;49.346;8.798;2023-02-18T09:04:16;100825.66;;;14.55;73.29
61384;BME280;63511;49.346;8.798;2023-02-18T09:06:45;100826.97;;;14.48;73.77
61384;BME280;63511;49.346;8.798;2023-02-18T09:09:12;100829.41;;;14.61;73.44
61384;BME280;63511;49.346;8.798;2023-02-18T09:11:39;100823.91;;;14.83;72.24
61384;BME280;63511;49.346;8.798;2023-02-18T09:14:05;100825.31;;;14.78;72.51
61384;BME280;63511;49.346;8.798;2023-02-18T09:16:32;100835.13;;;14.72;72.71
61384;BME280;63511;49.346;8.798;2023-02-18T09:18:59;100825.94;;;14.74;72.81
61384;BME280;63511;49.346;8.798;2023-02-18T09:21:26;100838.75;;;14.90;71.81
61384;BME280;63511;49.346;8.798;2023-02-18T09:23:53;100829.63;;;14.94;71.86
61384;BME280;63511;49.346;8.798;2023-02-18T09:26:21;100833.84;;;14.93;71.23
61384;BME280;63511;49.346;8.798;2023-02-18T09:28:50;100836.31;;;15.06;71.23
61384;BME280;63511;49.346;8.798;2023-02-18T09:31:18;100841.22;;;15.18;70.57
61384;BME280;63511;49.346;8.798;2023-02-18T09:33:47;100834.03;;;15.11;70.30
61384;BME280;63511;49.346;8.798;2023-02-18T09:36:15;100844.72;;;15.05;71.16
61384;BME280;63511;49.346;8.798;2023-02-18T09:38:43;100849.91;;;15.21;70.17
61384;BME280;63511;49.346;8.798;2023-02-18T09:41:17;100848.94;;;15.05;70.35
61384;BME280;63511;49.346;8.798;2023-02-18T09:43:48;100841.66;;;15.11;70.61
61384;BME280;63511;49.346;8.798;2023-02-18T09:46:19;100837.72;;;15.16;70.31
61384;BME280;63511;49.346;8.798;2023-02-18T09:48:47;100843.06;;;15.20;70.28
61384;BME280;63511;49.346;8.798;2023-02-18T09:51:15;100838.03;;;15.37;70.60
61384;BME280;63511;49.346;8.798;2023-02-18T09:53:44;100816.28;;;15.27;70.21
61384;BME280;63511;49.346;8.798;2023-02-18T09:56:13;100832.50;;;15.29;70.05
61384;BME280;63511;49.346;8.798;2023-02-18T09:58:41;100841.00;;;15.29;69.99
61384;BME280;63511;49.346;8.798;2023-02-18T10:01:16;100835.84;;;15.43;70.45
61384;BME280;63511;49.346;8.798;2023-02-18T10:03:46;100833.09;;;15.40;69.82
61384;BME280;63511;49.346;8.798;2023-02-18T10:06:17;100824.41;;;15.51;70.17
61384;BME280;63511;49.346;8.798;2023-02-18T10:08:48;100826.19;;;15.37;70.04
61384;BME280;63511;49.346;8.798;2023-02-18T10:11:21;100830.59;;;15.54;69.78
61384;BME280;63511;49.346;8.798;2023-02-18T10:13:48;100821.78;;;15.64;69.84
61384;BME280;63511;49.346;8.798;2023-02-18T10:16:18;100822.06;;;15.54;69.09
61384;BME280;63511;49.346;8.798;2023-02-18T10:18:48;100827.81;;;15.66;69.67
61384;BME280;63511;49.346;8.798;2023-02-18T10:21:19;100827.81;;;15.66;68.87
61384;BME280;63511;49.346;8.798;2023-02-18T10:23:53;100821.84;;;15.65;68.16
61384;BME280;63511;49.346;8.798;2023-02-18T10:26:23;100832.13;;;15.67;67.70
61384;BME280;63511;49.346;8.798;2023-02-18T10:28:50;100813.09;;;15.46;68.77
61384;BME280;63511;49.346;8.798;2023-02-18T10:31:20;100818.41;;;15.65;67.74
61384;BME280;63511;49.346;8.798;2023-02-18T10:33:53;100815.22;;;15.84;66.76
61384;BME280;63511;49.346;8.798;2023-02-18T10:36:25;100818.75;;;15.71;66.26
61384;BME280;63511;49.346;8.798;2023-02-18T10:39:16;100811.28;;;15.74;66.12
61384;BME280;63511;49.346;8.798;2023-02-18T10:41:53;100804.38;;;15.88;65.63
61384;BME280;63511;49.346;8.798;2023-02-18T10:44:30;100803.41;;;15.86;65.00
61384;BME280;63511;49.346;8.798;2023-02-18T10:47:10;100805.78;;;15.66;64.98
61384;BME280;63511;49.346;8.798;2023-02-18T10:49:54;100780.41;;;15.68;63.74
61384;BME280;63511;49.346;8.798;2023-02-18T10:52:22;100794.94;;;15.85;64.02
61384;BME280;63511;49.346;8.798;2023-02-18T10:54:57;100789.69;;;16.14;62.73
61384;BME280;63511;49.346;8.798;2023-02-18T10:57:25;100802.88;;;16.40;62.24
61384;BME280;63511;49.346;8.798;2023-02-18T10:59:57;100794.97;;;15.87;61.85
61384;BME280;63511;49.346;8.798;2023-02-18T11:02:26;100799.94;;;16.00;61.50
61384;BME280;63511;49.346;8.798;2023-02-18T11:04:56;100802.00;;;15.75;61.59
61384;BME280;63511;49.346;8.798;2023-02-18T11:07:26;100800.88;;;15.86;61.37
61384;BME280;63511;49.346;8.798;2023-02-18T11:09:57;100816.75;;;15.51;61.55
61384;BME280;63511;49.346;8.798;2023-02-18T11:12:26;100781.28;;;15.68;61.78
61384;BME280;63511;49.346;8.798;2023-02-18T11:15:14;100791.06;;;15.77;62.16
61384;BME280;63511;49.346;8.798;2023-02-18T11:17:43;100796.09;;;15.92;61.67
61384;BME280;63511;49.346;8.798;2023-02-18T11:20:22;100795.88;;;15.56;63.72
61384;BME280;63511;49.346;8.798;2023-02-18T11:22:50;100784.31;;;15.78;63.92
61384;BME280;63511;49.346;8.798;2023-02-18T11:25:21;100787.19;;;15.84;64.44
61384;BME280;63511;49.346;8.798;2023-02-18T11:27:49;100777.16;;;15.87;64.24
61384;BME280;63511;49.346;8.798;2023-02-18T11:30:19;100786.72;;;15.75;62.71
61384;BME280;63511;49.346;8.798;2023-02-18T11:32:48;100778.03;;;15.87;62.31
61384;BME280;63511;49.346;8.798;2023-02-18T11:35:17;100782.66;;;15.94;62.44
61384;BME280;63511;49.346;8.798;2023-02-18T11:37:45;100781.69;;;15.76;62.12
61384;BME280;63511;49.346;8.798;2023-02-18T11:40:21;100778.13;;;15.89;62.98
61384;BME280;63511;49.346;8.798;2023-02-18T11:42:48;100778.69;;;15.83;62.35
61384;BME280;63511;49.346;8.798;2023-02-18T11:45:27;100783.13;;;15.87;62.63
61384;BME280;63511;49.346;8.798;2023-02-18T11:47:58;100784.88;;;15.88;61.83
61384;BME280;63511;49.346;8.798;2023-02-18T11:50:24;100786.41;;;15.85;63.24
61384;BME280;63511;49.346;8.798;2023-02-18T11:52:51;100781.19;;;15.67;63.62
61384;BME280;63511;49.346;8.798;2023-02-18T11:55:21;100788.28;;;15.72;64.48
61384;BME280;63511;49.346;8.798;2023-02-18T11:57:53;100791.59;;;15.41;64.97
61384;BME280;63511;49.346;8.798;2023-02-18T12:00:23;100781.84;;;15.48;65.66
61384;BME280;63511;49.346;8.798;2023-02-18T12:02:51;100780.47;;;15.39;65.74
61384;BME280;63511;49.346;8.798;2023-02-18T12:05:22;100782.78;;;15.50;65.28
61384;BME280;63511;49.346;8.798;2023-02-18T12:07:51;100784.94;;;15.43;65.43
61384;BME280;63511;49.346;8.798;2023-02-18T12:10:24;100777.97;;;15.55;64.93
61384;BME280;63511;49.346;8.798;2023-02-18T12:12:57;100774.69;;;15.72;64.30
61384;BME280;63511;49.346;8.798;2023-02-18T12:21:17;100762.66;;;15.69;64.58
61384;BME280;63511;49.346;8.798;2023-02-18T12:23:56;100752.16;;;15.63;65.09
61384;BME280;63511;49.346;8.798;2023-02-18T12:26:28;100752.84;;;15.61;64.90
61384;BME280;63511;49.346;8.798;2023-02-18T12:29:11;100750.88;;;15.41;65.35
61384;BME280;63511;49.346;8.798;2023-02-18T12:31:52;100755.41;;;15.61;64.85
61384;BME280;63511;49.346;8.798;2023-02-18T12:34:34;100743.78;;;15.35;64.77
61384;BME280;63511;49.346;8.798;2023-02-18T12:37:13;100746.50;;;15.53;64.47
61384;BME280;63511;49.346;8.798;2023-02-18T12:39:59;100750.56;;;15.82;63.71
61384;BME280;63511;49.346;8.798;2023-02-18T12:42:40;100741.50;;;16.03;63.02
61384;BME280;63511;49.346;8.798;2023-02-18T12:45:27;100739.59;;;16.15;62.41
61384;BME280;63511;49.346;8.798;2023-02-18T12:48:14;100735.84;;;15.92;62.54
61384;BME280;63511;49.346;8.798;2023-02-18T12:50:55;100744.94;;;16.03;61.67
61384;BME280;63511;49.346;8.798;2023-02-18T12:53:46;100736.63;;;16.07;60.35
61384;BME280;63511;49.346;8.798;2023-02-18T12:56:41;100734.91;;;15.90;59.54
61384;BME280;63511;49.346;8.798;2023-02-18T12:59:26;100727.75;;;15.99;60.01
61384;BME280;63511;49.346;8.798;2023-02-18T13:02:04;100738.78;;;15.67;60.86
61384;BME280;63511;49.346;8.798;2023-02-18T13:04:44;100730.97;;;15.81;60.97
61384;BME280;63511;49.346;8.798;2023-02-18T13:07:42;100730.41;;;15.70;60.57
61384;BME280;63511;49.346;8.798;2023-02-18T13:10:41;100735.44;;;15.68;59.84
61384;BME280;63511;49.346;8.798;2023-02-18T13:13:12;100729.97;;;15.93;60.04